Bonnyman, KY (41719)

10:17 PM EDT on August 30, 2016 (GMT -0400)
Carroll | | Change Station

Elev 1381 ft 37.59 °N, 83.31 °W | Updated 24 minutes ago

Clear
Clear
76 °F
Feels Like 76 °F
N
0
Wind Variable Wind from North

Today
High -- | Low -- °F
--% Chance of Precip.
Yesterday
High -- | Low -- °F
Precip. -- in
Pressure 30.04 in
Visibility 10.0 miles
Clouds Clear
Dew Point 71 °F
Humidity 85%
Rainfall 0.00 in
Snow Depth Not available.
7:02 AM 8:03 PM
Waning Crescent, 2% visible
METAR KJKL 310153Z AUTO 00000KT 10SM CLR 24/22 A3008 RMK AO2 SLP170 T02440217
Pressure 30.04 in
Visibility 10.0 miles
Clouds Clear
Dew Point 71 °F
Humidity 85%
Rainfall 0.00 in
Snow Depth Not available.
7:02 AM 8:03 PM
Waning Crescent, 2% visible
METAR KJKL 310153Z AUTO 00000KT 10SM CLR 24/22 A3008 RMK AO2 SLP170 T02440217

10-Day Weather Forecast

Almanac

Astronomy

Aug. 30, 2016 Rise Set
Actual Time
Civil Twilight
Nautical Twilight
Astronomical Twilight
Moon
Length of Visible Light
Length of Day
Tomorrow will be .
, % of the Moon is Illuminated

Today's Extremes

State Highs State Lows

Community

WunderPhotos

Upload Photos

1,935,993 photos uploaded!

WunderBlog® & News

Nearby

Air Quality

  Air Quality AQ Index Pollutant
Not available.

Snow Depth

Station Depth Elevation

Earthquake Activity

City Distance Mag. Time & Date
Minimum magnitude displayed is 2.5.

Coastal Water Temperatures

Place Temperature

Stations

Nearby Weather Stations

Station Location Temp. Windchill Dew Point Humidity Wind Precip. Elev Updated Type
                   

Watches & Warnings

There are currently no watches in effect.